createdAt,value
2023-02-16T00:00:57.450Z,115.60
2023-02-16T00:01:57.503Z,132.90
2023-02-16T00:02:57.382Z,123.50
2023-02-16T00:03:57.400Z,152.50
2023-02-16T00:04:57.364Z,137.00
2023-02-16T00:05:57.419Z,119.20
2023-02-16T00:06:57.356Z,172.70
2023-02-16T00:07:57.373Z,137.80
2023-02-16T00:08:57.306Z,103.80
2023-02-16T00:09:57.309Z,140.70
2023-02-16T00:10:57.275Z,152.20
2023-02-16T00:11:57.306Z,128.90
2023-02-16T00:12:57.294Z,144.10
2023-02-16T00:13:57.275Z,155.20
2023-02-16T00:14:57.233Z,130.90
2023-02-16T00:15:57.330Z,116.80
2023-02-16T00:16:57.207Z,121.80
2023-02-16T00:17:57.236Z,206.70
2023-02-16T00:18:57.169Z,164.70
2023-02-16T00:19:57.200Z,135.20
2023-02-16T00:20:57.152Z,160.50
2023-02-16T00:21:57.183Z,173.90
2023-02-16T00:22:57.147Z,116.40
2023-02-16T00:23:57.141Z,101.30
2023-02-16T00:24:57.104Z,179.70
2023-02-16T00:25:57.130Z,161.80
2023-02-16T00:26:57.101Z,145.10
2023-02-16T00:27:57.082Z,156.30
2023-02-16T00:28:57.046Z,130.60
2023-02-16T00:29:57.124Z,145.30
2023-02-16T00:30:57.106Z,115.20
2023-02-16T00:31:57.242Z,122.60
2023-02-16T00:32:57.033Z,130.90
2023-02-16T00:33:57.006Z,116.20
2023-02-16T00:34:56.992Z,113.80
2023-02-16T00:35:57.020Z,135.50
2023-02-16T00:36:56.939Z,92.50
2023-02-16T00:37:56.965Z,110.60
2023-02-16T00:38:56.923Z,122.20
2023-02-16T00:39:56.956Z,94.70
2023-02-16T00:40:56.904Z,107.20
2023-02-16T00:41:56.914Z,93.90
2023-02-16T00:42:57.642Z,86.20
2023-02-16T00:43:56.894Z,129.20
2023-02-16T00:44:56.870Z,101.00
2023-02-16T00:45:56.905Z,103.80
2023-02-16T00:46:56.814Z,93.90
2023-02-16T00:47:56.827Z,85.30
2023-02-16T00:48:56.799Z,119.70
2023-02-16T00:49:56.817Z,108.90
2023-02-16T00:50:56.766Z,192.20
2023-02-16T00:51:56.777Z,94.50
2023-02-16T00:52:56.738Z,89.30
2023-02-16T00:53:56.751Z,122.30
2023-02-16T00:54:56.734Z,93.20
2023-02-16T00:55:56.741Z,139.70
2023-02-16T00:56:56.698Z,99.00
2023-02-16T00:57:56.704Z,172.20
2023-02-16T00:58:56.669Z,147.10
2023-02-16T00:59:56.689Z,120.40
2023-02-16T01:00:56.646Z,155.30
2023-02-16T01:01:56.663Z,122.10
2023-02-16T01:02:56.631Z,157.30
2023-02-16T01:03:56.616Z,146.40
2023-02-16T01:04:56.600Z,122.50
2023-02-16T01:05:56.589Z,130.20
2023-02-16T01:06:56.567Z,119.60
2023-02-16T01:07:56.565Z,163.60
2023-02-16T01:08:56.589Z,134.20
2023-02-16T01:09:56.532Z,130.10
2023-02-16T01:10:56.516Z,148.60
2023-02-16T01:11:56.511Z,145.50
2023-02-16T01:12:56.468Z,147.30
2023-02-16T01:13:56.488Z,144.00
2023-02-16T01:14:56.460Z,112.90
2023-02-16T01:15:56.524Z,149.20
2023-02-16T01:16:56.427Z,136.90
2023-02-16T01:17:56.429Z,133.30
2023-02-16T01:18:56.395Z,125.40
2023-02-16T01:19:56.405Z,98.20
2023-02-16T01:20:56.382Z,101.60
2023-02-16T01:21:56.374Z,100.10
2023-02-16T01:22:56.342Z,105.80
2023-02-16T01:23:56.356Z,131.30
2023-02-16T01:24:56.312Z,116.80
2023-02-16T01:25:56.324Z,140.70
2023-02-16T01:26:56.304Z,133.20
2023-02-16T01:27:56.308Z,105.50
2023-02-16T01:28:56.263Z,105.40
2023-02-16T01:29:56.338Z,152.60
2023-02-16T01:30:56.345Z,132.40
2023-02-16T01:31:56.357Z,119.50
2023-02-16T01:32:56.239Z,114.70
2023-02-16T01:33:56.232Z,120.10
2023-02-16T01:34:56.186Z,85.30
2023-02-16T01:35:56.192Z,114.80
2023-02-16T01:36:56.171Z,116.20
2023-02-16T01:37:56.199Z,108.80
2023-02-16T01:38:56.126Z,130.20
2023-02-16T01:39:56.168Z,119.90
2023-02-16T01:40:56.109Z,109.60
2023-02-16T01:41:56.112Z,143.00
2023-02-16T01:42:56.093Z,93.50
2023-02-16T01:43:56.091Z,89.40
2023-02-16T01:44:56.051Z,110.60
2023-02-16T01:45:56.071Z,115.70
2023-02-16T01:46:56.035Z,104.30
2023-02-16T01:47:56.054Z,121.40
2023-02-16T01:48:55.996Z,130.20
2023-02-16T01:49:56.020Z,132.20
2023-02-16T01:50:55.975Z,116.60
2023-02-16T01:51:55.989Z,119.70
2023-02-16T01:52:55.968Z,88.20
2023-02-16T01:53:55.970Z,99.10
2023-02-16T01:54:55.923Z,117.10
2023-02-16T01:55:55.964Z,90.30
2023-02-16T01:56:55.931Z,114.60
2023-02-16T01:57:55.955Z,126.10
2023-02-16T01:58:55.871Z,112.90
2023-02-16T01:59:55.883Z,143.00
2023-02-16T02:00:55.841Z,144.30
2023-02-16T02:01:55.919Z,142.80
2023-02-16T02:02:55.897Z,118.00
2023-02-16T02:03:55.865Z,143.30
2023-02-16T02:04:55.787Z,126.20
2023-02-16T02:05:55.810Z,139.50
2023-02-16T02:06:55.814Z,116.00
2023-02-16T02:07:55.787Z,156.50
2023-02-16T02:08:55.745Z,113.70
2023-02-16T02:09:55.785Z,160.50
2023-02-16T02:10:55.725Z,150.60
2023-02-16T02:11:55.719Z,125.60
2023-02-16T02:12:55.741Z,157.50
2023-02-16T02:13:55.707Z,125.90
2023-02-16T02:14:55.676Z,152.20
2023-02-16T02:15:55.712Z,149.90
2023-02-16T02:16:55.656Z,171.30
2023-02-16T02:17:55.637Z,177.20
2023-02-16T02:18:55.625Z,151.30
2023-02-16T02:19:55.635Z,155.70
2023-02-16T02:20:55.580Z,133.20
2023-02-16T02:21:55.596Z,157.10
2023-02-16T02:22:55.566Z,161.20
2023-02-16T02:23:55.556Z,146.00
2023-02-16T02:24:55.542Z,153.40
2023-02-16T02:25:55.626Z,147.40
2023-02-16T02:26:55.531Z,175.10
2023-02-16T02:27:55.523Z,153.00
2023-02-16T02:28:55.477Z,136.20
2023-02-16T02:29:55.525Z,172.70
2023-02-16T02:30:55.480Z,155.70
2023-02-16T02:31:55.675Z,155.10
2023-02-16T02:32:55.500Z,161.20
2023-02-16T02:33:55.405Z,157.00
2023-02-16T02:34:55.437Z,153.60
2023-02-16T02:35:55.373Z,162.80
2023-02-16T02:36:55.440Z,167.00
2023-02-16T02:37:55.365Z,170.50
2023-02-16T02:38:55.377Z,159.30
2023-02-16T02:39:55.327Z,142.10
2023-02-16T02:40:55.857Z,136.90
2023-02-16T02:41:55.311Z,165.00
2023-02-16T02:42:55.359Z,169.00
2023-02-16T02:43:55.274Z,160.10
2023-02-16T02:44:55.288Z,134.90
2023-02-16T02:45:55.256Z,166.40
2023-02-16T02:46:55.345Z,178.30
2023-02-16T02:47:55.279Z,199.10
2023-02-16T02:48:55.271Z,154.80
2023-02-16T02:49:55.202Z,181.10
2023-02-16T02:50:55.217Z,201.00
2023-02-16T02:51:55.170Z,195.10
2023-02-16T02:52:55.205Z,143.80
2023-02-16T02:53:55.167Z,109.80
2023-02-16T02:54:55.175Z,161.90
2023-02-16T02:55:55.127Z,166.10
2023-02-16T02:56:55.134Z,132.10
2023-02-16T02:57:55.114Z,167.60
2023-02-16T02:58:55.120Z,137.30
2023-02-16T02:59:55.072Z,127.00
2023-02-16T03:00:55.111Z,152.80
2023-02-16T03:01:55.092Z,162.80
2023-02-16T03:02:55.056Z,182.50
2023-02-16T03:03:55.014Z,166.10
2023-02-16T03:04:55.036Z,147.80
2023-02-16T03:05:55.012Z,155.60
2023-02-16T03:06:55.001Z,167.20
2023-02-16T03:07:54.967Z,149.20
2023-02-16T03:08:55.006Z,134.30
2023-02-16T03:09:54.927Z,133.00
2023-02-16T03:10:54.969Z,124.50
2023-02-16T03:11:54.907Z,156.80
2023-02-16T03:12:54.920Z,172.20
2023-02-16T03:13:54.903Z,102.10
2023-02-16T03:14:54.874Z,156.20
2023-02-16T03:15:54.904Z,137.40
2023-02-16T03:16:54.874Z,150.90
2023-02-16T03:17:54.878Z,123.80
2023-02-16T03:18:54.829Z,90.30
2023-02-16T03:19:54.858Z,119.40
2023-02-16T03:20:54.800Z,115.40
2023-02-16T03:21:54.824Z,139.60
2023-02-16T03:22:54.765Z,129.60
2023-02-16T03:23:54.775Z,160.90
2023-02-16T03:24:54.748Z,118.90
2023-02-16T03:25:54.767Z,96.40
2023-02-16T03:26:54.746Z,117.40
2023-02-16T03:27:54.730Z,154.70
2023-02-16T03:28:54.682Z,94.30
2023-02-16T03:29:54.714Z,106.50
2023-02-16T03:30:54.674Z,91.00
2023-02-16T03:31:54.739Z,140.20
2023-02-16T03:32:54.628Z,115.30
2023-02-16T03:33:55.022Z,127.30
2023-02-16T03:34:54.633Z,123.20
2023-02-16T03:35:54.624Z,141.90
2023-02-16T03:36:54.583Z,147.80
2023-02-16T03:37:54.628Z,126.70
2023-02-16T03:38:54.557Z,118.60
2023-02-16T03:39:54.604Z,126.10
2023-02-16T03:40:54.516Z,127.00
2023-02-16T03:41:54.557Z,131.90
2023-02-16T03:42:54.501Z,116.40
2023-02-16T03:43:54.527Z,127.70
2023-02-16T03:44:54.486Z,133.70
2023-02-16T03:45:54.544Z,142.00
2023-02-16T03:46:54.458Z,113.30
2023-02-16T03:47:54.456Z,116.50
2023-02-16T03:48:54.466Z,115.20
2023-02-16T03:49:54.462Z,104.20
2023-02-16T03:50:54.400Z,112.80
2023-02-16T03:51:54.405Z,129.90
2023-02-16T03:52:54.395Z,131.10
2023-02-16T03:53:54.431Z,118.10
2023-02-16T03:54:54.337Z,102.10
2023-02-16T03:55:54.367Z,107.30
2023-02-16T03:56:54.324Z,76.20
2023-02-16T03:57:54.345Z,130.10
2023-02-16T03:58:54.288Z,106.60
2023-02-16T03:59:54.311Z,85.00
2023-02-16T04:00:54.978Z,114.50
2023-02-16T04:01:54.311Z,122.90
2023-02-16T04:02:54.270Z,122.70
2023-02-16T04:03:54.276Z,104.50
2023-02-16T04:04:54.214Z,139.40
2023-02-16T04:05:54.226Z,105.00
2023-02-16T04:06:54.215Z,94.60
2023-02-16T04:07:54.197Z,112.40
2023-02-16T04:08:54.165Z,122.90
2023-02-16T04:09:54.183Z,107.00
2023-02-16T04:10:54.211Z,109.50
2023-02-16T04:11:54.169Z,109.10
2023-02-16T04:12:54.116Z,95.20
2023-02-16T04:13:54.143Z,109.50
2023-02-16T04:14:54.075Z,106.40
2023-02-16T04:15:54.088Z,97.90
2023-02-16T04:16:54.150Z,125.60
2023-02-16T04:17:54.093Z,112.70
2023-02-16T04:18:54.034Z,122.90
2023-02-16T04:19:54.069Z,104.40
2023-02-16T04:20:54.015Z,135.40
2023-02-16T04:21:54.028Z,93.30
2023-02-16T04:22:53.994Z,81.10
2023-02-16T04:23:54.025Z,119.10
2023-02-16T04:24:53.947Z,100.30
2023-02-16T04:25:53.991Z,120.20
2023-02-16T04:26:53.935Z,125.30
2023-02-16T04:27:53.988Z,129.90
2023-02-16T04:28:53.949Z,113.90
2023-02-16T04:29:53.981Z,119.20
2023-02-16T04:30:53.995Z,115.10
2023-02-16T04:31:53.985Z,105.90
2023-02-16T04:32:53.893Z,100.90
2023-02-16T04:33:53.858Z,113.40
2023-02-16T04:34:53.835Z,105.40
2023-02-16T04:35:53.842Z,131.80
2023-02-16T04:36:53.790Z,116.20
2023-02-16T04:37:53.824Z,133.20
2023-02-16T04:38:53.764Z,134.30
2023-02-16T04:39:53.815Z,119.90
2023-02-16T04:40:53.741Z,106.10
2023-02-16T04:41:53.743Z,114.40
2023-02-16T04:42:53.714Z,109.00
2023-02-16T04:43:53.752Z,112.20
2023-02-16T04:44:53.693Z,136.10
2023-02-16T04:45:53.722Z,134.40
2023-02-16T04:46:53.665Z,134.60
2023-02-16T04:47:53.691Z,107.50
2023-02-16T04:48:53.679Z,111.00
2023-02-16T04:49:53.675Z,104.00
2023-02-16T04:50:53.653Z,91.90
2023-02-16T04:51:53.635Z,98.70
2023-02-16T04:52:53.590Z,90.70
2023-02-16T04:53:53.602Z,102.40
2023-02-16T04:54:53.570Z,100.30
2023-02-16T04:55:53.572Z,98.60
2023-02-16T04:56:53.527Z,108.50
2023-02-16T04:57:53.541Z,101.40
2023-02-16T04:58:53.508Z,81.90
2023-02-16T04:59:53.540Z,104.80
2023-02-16T05:00:53.489Z,94.60
2023-02-16T05:01:53.600Z,106.10
2023-02-16T05:02:53.461Z,98.80
2023-02-16T05:03:53.460Z,116.40
2023-02-16T05:04:53.529Z,122.10
2023-02-16T05:05:53.464Z,133.60
2023-02-16T05:06:53.417Z,109.20
2023-02-16T05:07:53.420Z,105.10
2023-02-16T05:08:53.396Z,151.30
2023-02-16T05:09:53.397Z,117.70
2023-02-16T05:10:53.341Z,112.90
2023-02-16T05:11:53.346Z,80.40
2023-02-16T05:12:53.339Z,106.10
2023-02-16T05:13:53.328Z,114.00
2023-02-16T05:14:53.314Z,123.80
2023-02-16T05:15:53.347Z,110.70
2023-02-16T05:16:53.262Z,103.80
2023-02-16T05:17:53.297Z,108.60
2023-02-16T05:18:53.251Z,120.50
2023-02-16T05:19:53.243Z,117.30
2023-02-16T05:20:53.208Z,110.10
2023-02-16T05:21:53.232Z,103.50
2023-02-16T05:22:53.208Z,93.50
2023-02-16T05:23:53.223Z,86.50
2023-02-16T05:24:53.166Z,93.10
2023-02-16T05:25:53.174Z,98.20
2023-02-16T05:26:53.137Z,92.00
2023-02-16T05:27:53.218Z,129.70
2023-02-16T05:28:53.112Z,108.60
2023-02-16T05:29:53.216Z,84.00
2023-02-16T05:30:53.138Z,92.50
2023-02-16T05:31:53.254Z,96.90
2023-02-16T05:32:53.088Z,98.70
2023-02-16T05:33:53.085Z,118.30
2023-02-16T05:34:53.051Z,84.00
2023-02-16T05:35:53.087Z,88.50
2023-02-16T05:36:53.016Z,103.70
2023-02-16T05:37:53.017Z,122.60
2023-02-16T05:38:52.999Z,110.70
2023-02-16T05:39:53.149Z,133.90
2023-02-16T05:40:53.004Z,108.10
2023-02-16T05:41:52.985Z,107.40
2023-02-16T05:42:53.236Z,93.40
2023-02-16T05:43:52.965Z,100.80
2023-02-16T05:44:52.936Z,65.20
2023-02-16T05:45:52.984Z,100.90
2023-02-16T05:46:52.879Z,122.00
2023-02-16T05:47:52.913Z,105.80
2023-02-16T05:48:52.863Z,119.40
2023-02-16T05:49:52.900Z,91.00
2023-02-16T05:50:52.833Z,124.10
2023-02-16T05:51:52.857Z,88.60
2023-02-16T05:52:52.825Z,95.90
2023-02-16T05:53:52.830Z,111.40
2023-02-16T05:54:52.791Z,92.40
2023-02-16T05:55:52.799Z,84.80
2023-02-16T05:56:52.795Z,104.70
2023-02-16T05:57:52.774Z,109.30
2023-02-16T05:58:52.739Z,119.30
2023-02-16T05:59:52.752Z,112.60
2023-02-16T06:00:52.693Z,136.50
2023-02-16T06:01:52.855Z,126.00
2023-02-16T06:02:52.686Z,122.80
2023-02-16T06:03:52.788Z,103.10
2023-02-16T06:04:52.642Z,119.50
2023-02-16T06:05:52.675Z,123.80
2023-02-16T06:06:52.641Z,77.50
2023-02-16T06:07:52.633Z,111.80
2023-02-16T06:08:52.598Z,114.90
2023-02-16T06:09:52.643Z,95.20
2023-02-16T06:10:52.598Z,95.10
2023-02-16T06:11:52.584Z,81.40
2023-02-16T06:12:52.576Z,89.60
2023-02-16T06:13:52.571Z,90.30
2023-02-16T06:14:52.541Z,91.20
2023-02-16T06:15:52.592Z,72.60
2023-02-16T06:16:52.523Z,107.60
2023-02-16T06:17:52.502Z,102.50
2023-02-16T06:18:52.497Z,142.90
2023-02-16T06:19:52.521Z,101.80
2023-02-16T06:20:52.428Z,112.50
2023-02-16T06:21:52.459Z,139.80
2023-02-16T06:22:52.438Z,106.60
2023-02-16T06:23:52.420Z,108.40
2023-02-16T06:24:52.413Z,104.70
2023-02-16T06:25:52.422Z,125.20
2023-02-16T06:26:52.372Z,140.10
2023-02-16T06:27:52.393Z,131.10
2023-02-16T06:28:52.345Z,157.00
2023-02-16T06:29:52.385Z,132.60
2023-02-16T06:30:52.332Z,122.90
2023-02-16T06:31:52.477Z,111.30
2023-02-16T06:32:52.273Z,109.40
2023-02-16T06:33:52.278Z,105.20
2023-02-16T06:34:52.282Z,90.50
2023-02-16T06:35:52.259Z,108.90
2023-02-16T06:36:52.239Z,112.20
2023-02-16T06:37:52.226Z,108.20
2023-02-16T06:38:52.213Z,90.40
2023-02-16T06:39:52.248Z,103.60
2023-02-16T06:40:52.172Z,97.90
2023-02-16T06:41:52.205Z,97.60
2023-02-16T06:42:52.155Z,128.30
2023-02-16T06:43:52.154Z,105.00
2023-02-16T06:44:52.151Z,116.40
2023-02-16T06:45:52.130Z,99.40
2023-02-16T06:46:52.169Z,95.80
2023-02-16T06:47:52.123Z,121.30
2023-02-16T06:48:52.060Z,76.10
2023-02-16T06:49:52.076Z,118.30
2023-02-16T06:50:52.066Z,100.80
2023-02-16T06:51:52.177Z,83.80
2023-02-16T06:52:52.066Z,77.00
2023-02-16T06:53:52.027Z,97.10
2023-02-16T06:54:51.989Z,75.90
2023-02-16T06:55:52.006Z,121.60
2023-02-16T06:56:51.972Z,106.40
2023-02-16T06:57:52.015Z,81.90
2023-02-16T06:58:51.934Z,104.60
2023-02-16T06:59:51.952Z,105.40
2023-02-16T07:00:52.024Z,90.30
2023-02-16T07:01:51.927Z,73.10
2023-02-16T07:02:51.924Z,94.10
2023-02-16T07:03:51.942Z,78.30
2023-02-16T07:04:51.856Z,93.80
2023-02-16T07:05:51.877Z,89.10
2023-02-16T07:06:51.839Z,96.70
2023-02-16T07:07:51.839Z,115.90
2023-02-16T07:08:51.817Z,99.60
2023-02-16T07:09:51.822Z,111.90
2023-02-16T07:10:51.780Z,97.70
2023-02-16T07:11:51.797Z,114.50
2023-02-16T07:12:51.751Z,109.10
2023-02-16T07:13:51.792Z,104.30
2023-02-16T07:14:51.725Z,113.00
2023-02-16T07:15:51.777Z,88.30
2023-02-16T07:16:51.711Z,93.00
2023-02-16T07:17:51.719Z,108.90
2023-02-16T07:18:51.684Z,93.60
2023-02-16T07:19:51.713Z,80.10
2023-02-16T07:20:51.666Z,90.90
2023-02-16T07:21:51.661Z,88.10
2023-02-16T07:22:51.631Z,116.30
2023-02-16T07:23:51.628Z,98.40
2023-02-16T07:24:51.626Z,106.70
2023-02-16T07:25:51.600Z,118.40
2023-02-16T07:26:51.568Z,124.20
2023-02-16T07:27:51.580Z,116.10
2023-02-16T07:28:51.559Z,95.50
2023-02-16T07:29:51.562Z,118.30
2023-02-16T07:30:51.646Z,119.40
2023-02-16T07:31:51.710Z,100.10
2023-02-16T07:32:51.551Z,90.50
2023-02-16T07:33:51.492Z,68.00
2023-02-16T07:34:51.486Z,108.60
2023-02-16T07:35:51.479Z,62.90
2023-02-16T07:36:51.516Z,89.70
2023-02-16T07:37:51.471Z,94.40
2023-02-16T07:38:51.437Z,105.10
2023-02-16T07:39:51.397Z,111.20
2023-02-16T07:40:51.437Z,93.50
2023-02-16T07:41:51.375Z,99.00
2023-02-16T07:42:51.408Z,95.80
2023-02-16T07:43:51.387Z,106.10
2023-02-16T07:44:51.360Z,109.30
2023-02-16T07:45:51.393Z,100.10
2023-02-16T07:46:51.360Z,74.90
2023-02-16T07:47:51.301Z,93.70
2023-02-16T07:48:51.398Z,106.70
2023-02-16T07:49:51.314Z,85.80
2023-02-16T07:50:51.292Z,104.90
2023-02-16T07:51:51.250Z,110.70
2023-02-16T07:52:51.241Z,94.20
2023-02-16T07:53:51.242Z,109.80
2023-02-16T07:54:51.228Z,93.80
2023-02-16T07:55:51.223Z,90.30
2023-02-16T07:56:51.234Z,95.30
2023-02-16T07:57:51.188Z,101.10
2023-02-16T07:58:51.178Z,75.80
2023-02-16T07:59:51.127Z,89.80
2023-02-16T08:00:51.152Z,113.20
2023-02-16T08:01:51.273Z,135.10
2023-02-16T08:02:51.299Z,107.70
2023-02-16T08:03:51.101Z,116.10
2023-02-16T08:04:51.112Z,106.50
2023-02-16T08:05:51.044Z,123.90
2023-02-16T08:06:51.066Z,125.60
2023-02-16T08:07:51.029Z,109.20
2023-02-16T08:08:51.061Z,130.20
2023-02-16T08:09:51.017Z,128.10
2023-02-16T08:10:51.013Z,149.70
2023-02-16T08:11:50.966Z,143.00
2023-02-16T08:12:51.052Z,86.00
2023-02-16T08:13:50.984Z,113.40
2023-02-16T08:14:50.964Z,97.00
2023-02-16T08:15:50.929Z,115.60
2023-02-16T08:16:54.092Z,127.10
2023-02-16T08:17:50.904Z,127.50
2023-02-16T08:18:50.936Z,114.90
2023-02-16T08:19:50.892Z,100.90
2023-02-16T08:21:03.195Z,129.20
2023-02-16T08:21:50.874Z,129.80
2023-02-16T08:22:50.853Z,127.80
2023-02-16T08:23:50.895Z,90.20
2023-02-16T08:24:50.845Z,92.10
2023-02-16T08:25:50.808Z,117.60
2023-02-16T08:26:50.834Z,149.20
2023-02-16T08:27:50.771Z,144.40
2023-02-16T08:28:50.785Z,100.00
2023-02-16T08:29:50.781Z,105.00
2023-02-16T08:30:50.767Z,113.70
2023-02-16T08:31:50.801Z,112.70
2023-02-16T08:32:50.733Z,92.90
2023-02-16T08:33:50.730Z,106.00
2023-02-16T08:34:50.736Z,103.80
2023-02-16T08:35:50.676Z,111.70
2023-02-16T08:36:50.688Z,104.50
2023-02-16T08:37:50.699Z,108.00
2023-02-16T08:38:50.645Z,109.30
2023-02-16T08:39:50.618Z,86.60
2023-02-16T08:40:50.634Z,95.80
2023-02-16T08:41:50.607Z,107.00
2023-02-16T08:42:50.618Z,87.80
2023-02-16T08:43:50.561Z,88.00
2023-02-16T08:44:50.594Z,81.60
2023-02-16T08:45:50.611Z,85.50
2023-02-16T08:46:50.533Z,82.80
2023-02-16T08:47:50.508Z,80.90
2023-02-16T08:48:50.517Z,81.30
2023-02-16T08:49:50.494Z,89.70
2023-02-16T08:50:50.491Z,91.50
2023-02-16T08:51:50.489Z,76.10
2023-02-16T08:52:50.474Z,86.20
2023-02-16T08:53:50.429Z,72.00
2023-02-16T08:54:50.460Z,73.30
2023-02-16T08:55:50.430Z,83.10
2023-02-16T08:56:50.436Z,75.60
2023-02-16T08:57:50.411Z,75.80
2023-02-16T08:58:50.388Z,72.80
2023-02-16T08:59:50.374Z,66.80
2023-02-16T09:00:50.398Z,64.50
2023-02-16T09:01:50.333Z,54.80
2023-02-16T09:02:50.411Z,61.00
2023-02-16T09:03:50.290Z,59.60
2023-02-16T09:04:50.349Z,60.40
2023-02-16T09:05:50.277Z,65.30
2023-02-16T09:06:50.300Z,54.90
2023-02-16T09:07:50.250Z,63.70
2023-02-16T09:08:50.253Z,68.50
2023-02-16T09:09:50.248Z,63.20
2023-02-16T09:10:50.246Z,57.20
2023-02-16T09:11:50.216Z,57.10
2023-02-16T09:12:50.192Z,54.10
2023-02-16T09:13:50.165Z,54.40
2023-02-16T09:14:50.185Z,54.70
2023-02-16T09:15:50.144Z,54.70
2023-02-16T09:16:50.259Z,53.30
2023-02-16T09:17:50.108Z,53.90
2023-02-16T09:18:50.160Z,51.90
2023-02-16T09:19:50.091Z,54.00
2023-02-16T09:20:50.090Z,53.40
2023-02-16T09:21:50.094Z,54.20
2023-02-16T09:22:50.088Z,56.20
2023-02-16T09:23:50.047Z,56.00
2023-02-16T09:24:50.074Z,57.90
2023-02-16T09:25:50.056Z,56.70
2023-02-16T09:26:50.040Z,53.00
2023-02-16T09:27:50.034Z,51.10
2023-02-16T09:28:50.012Z,51.80
2023-02-16T09:29:49.950Z,51.00
2023-02-16T09:30:50.015Z,50.30
2023-02-16T09:31:49.940Z,48.40
2023-02-16T09:32:49.940Z,56.70
2023-02-16T09:33:49.918Z,48.80
2023-02-16T09:34:49.922Z,46.10
2023-02-16T09:35:49.902Z,46.90
2023-02-16T09:36:49.956Z,47.80
2023-02-16T09:37:49.883Z,46.80
2023-02-16T09:38:49.855Z,44.30
2023-02-16T09:39:49.890Z,43.90
2023-02-16T09:40:49.822Z,43.80
2023-02-16T09:41:49.817Z,42.50
2023-02-16T09:42:49.823Z,41.90
2023-02-16T09:43:49.794Z,41.80
2023-02-16T09:44:49.783Z,37.30
2023-02-16T09:45:49.757Z,38.50
2023-02-16T09:46:49.740Z,38.00
2023-02-16T09:47:49.730Z,35.20
2023-02-16T09:48:49.750Z,34.20
2023-02-16T09:49:49.693Z,34.50
2023-02-16T09:50:54.556Z,33.60
2023-02-16T09:51:49.671Z,32.10
2023-02-16T09:52:52.263Z,33.70
2023-02-16T09:53:49.683Z,32.10
2023-02-16T09:54:49.662Z,30.10
2023-02-16T09:55:49.621Z,28.90
2023-02-16T09:56:49.628Z,28.80
2023-02-16T09:57:49.576Z,28.10
2023-02-16T09:58:49.664Z,27.00
2023-02-16T09:59:49.576Z,29.60
2023-02-16T10:00:49.588Z,27.50
2023-02-16T10:01:49.527Z,26.80
2023-02-16T10:02:49.608Z,29.20
2023-02-16T10:03:49.525Z,28.20
2023-02-16T10:04:49.530Z,25.20
2023-02-16T10:05:49.520Z,26.00
2023-02-16T10:06:49.507Z,26.00
2023-02-16T10:07:49.468Z,26.90
2023-02-16T10:08:49.461Z,25.80
2023-02-16T10:09:49.425Z,24.20
2023-02-16T10:10:49.436Z,24.50
2023-02-16T10:11:49.439Z,26.70
2023-02-16T10:12:49.422Z,26.80
2023-02-16T10:13:49.364Z,23.30
2023-02-16T10:14:49.417Z,24.50
2023-02-16T10:15:49.373Z,24.00
2023-02-16T10:16:49.351Z,26.30
2023-02-16T10:17:49.305Z,23.80
2023-02-16T10:18:49.338Z,24.00
2023-02-16T10:19:49.326Z,22.60
2023-02-16T10:20:49.312Z,21.90
2023-02-16T10:21:49.276Z,24.30
2023-02-16T10:22:49.283Z,23.10
2023-02-16T10:23:49.250Z,25.60
2023-02-16T10:24:49.282Z,22.60
2023-02-16T10:25:49.220Z,25.30
2023-02-16T10:26:49.221Z,23.30
2023-02-16T10:27:49.211Z,24.60
2023-02-16T10:28:49.214Z,24.10
2023-02-16T10:29:49.181Z,23.70
2023-02-16T10:30:49.267Z,24.30
2023-02-16T10:31:49.231Z,24.00
2023-02-16T10:32:49.140Z,24.70
2023-02-16T10:33:49.132Z,25.90
2023-02-16T10:34:49.135Z,28.00
2023-02-16T10:35:49.089Z,28.50
2023-02-16T10:36:49.094Z,27.50
2023-02-16T10:37:49.069Z,28.20
2023-02-16T10:38:49.098Z,28.00
2023-02-16T10:39:49.032Z,32.70
2023-02-16T10:40:49.046Z,30.60
2023-02-16T10:41:49.032Z,27.20
2023-02-16T10:42:49.036Z,29.30
2023-02-16T10:43:48.980Z,30.70
2023-02-16T10:44:49.018Z,31.00
2023-02-16T10:45:51.970Z,30.80
2023-02-16T10:46:48.955Z,30.30
2023-02-16T10:47:48.940Z,30.90
2023-02-16T10:48:48.935Z,32.40
2023-02-16T10:49:48.916Z,31.10
2023-02-16T10:50:48.904Z,29.70
2023-02-16T10:51:48.875Z,31.20
2023-02-16T10:52:48.880Z,33.10
2023-02-16T10:53:48.855Z,30.80
2023-02-16T10:54:48.868Z,31.50
2023-02-16T10:55:48.817Z,29.50
2023-02-16T10:56:48.832Z,32.50
2023-02-16T10:57:48.782Z,30.30
2023-02-16T10:58:48.824Z,32.90
2023-02-16T10:59:48.794Z,32.20
2023-02-16T11:00:48.781Z,34.30
2023-02-16T11:01:48.872Z,32.30
2023-02-16T11:02:48.778Z,33.00
2023-02-16T11:03:48.707Z,34.10
2023-02-16T11:04:48.855Z,33.00
2023-02-16T11:05:48.718Z,32.50
2023-02-16T11:06:48.717Z,30.60
2023-02-16T11:07:48.657Z,32.90
2023-02-16T11:08:48.686Z,29.20
2023-02-16T11:09:48.647Z,37.00
2023-02-16T11:10:48.629Z,30.50
2023-02-16T11:11:48.630Z,33.40
2023-02-16T11:12:48.640Z,29.70
2023-02-16T11:13:48.585Z,32.10
2023-02-16T11:14:48.623Z,33.90
2023-02-16T11:15:48.589Z,30.70
2023-02-16T11:16:48.570Z,28.60
2023-02-16T11:17:48.548Z,33.10
2023-02-16T11:18:48.534Z,32.70
2023-02-16T11:19:48.511Z,28.90
2023-02-16T11:20:48.516Z,31.10
2023-02-16T11:21:48.500Z,30.40
2023-02-16T11:22:48.487Z,31.70
2023-02-16T11:23:48.498Z,29.20
2023-02-16T11:24:48.453Z,29.30
2023-02-16T11:25:48.419Z,29.70
2023-02-16T11:26:48.440Z,28.60
2023-02-16T11:27:48.378Z,30.70
2023-02-16T11:28:48.438Z,29.50
2023-02-16T11:29:48.376Z,29.70
2023-02-16T11:30:48.415Z,27.10
2023-02-16T11:31:48.497Z,31.50
2023-02-16T11:32:48.355Z,29.30
2023-02-16T11:33:48.311Z,29.40
2023-02-16T11:34:48.358Z,25.50
2023-02-16T11:35:48.299Z,28.60
2023-02-16T11:36:48.322Z,29.00
2023-02-16T11:37:48.260Z,25.80
2023-02-16T11:38:48.261Z,28.10
2023-02-16T11:39:48.264Z,29.20
2023-02-16T11:40:48.241Z,28.00
2023-02-16T11:41:48.199Z,25.90
2023-02-16T11:42:48.214Z,28.90
2023-02-16T11:43:48.194Z,28.10
2023-02-16T11:44:48.202Z,27.20
2023-02-16T11:45:48.144Z,26.00
2023-02-16T11:46:48.186Z,25.50
2023-02-16T11:47:48.164Z,26.80
2023-02-16T11:48:48.116Z,25.60
2023-02-16T11:49:48.103Z,28.50
2023-02-16T11:50:48.103Z,26.00
2023-02-16T11:51:48.092Z,27.10
2023-02-16T11:52:48.044Z,26.20
2023-02-16T11:53:48.066Z,24.00
2023-02-16T11:54:48.019Z,26.10
2023-02-16T11:55:48.076Z,25.00
2023-02-16T11:56:47.996Z,22.90
2023-02-16T11:57:48.032Z,26.50
2023-02-16T11:58:47.966Z,23.70
2023-02-16T11:59:47.975Z,23.40
2023-02-16T12:00:48.008Z,24.00
2023-02-16T12:01:47.958Z,25.30
2023-02-16T12:02:47.950Z,24.10
2023-02-16T12:03:47.941Z,22.30
2023-02-16T12:04:47.915Z,29.40
2023-02-16T12:05:47.919Z,23.90
2023-02-16T12:06:47.878Z,24.10
2023-02-16T12:07:47.900Z,21.50
2023-02-16T12:08:47.852Z,23.80
2023-02-16T12:09:47.851Z,21.90
2023-02-16T12:10:47.851Z,30.70
2023-02-16T12:11:47.822Z,22.70
2023-02-16T12:12:47.781Z,18.90
2023-02-16T12:13:47.803Z,19.90
2023-02-16T12:14:47.762Z,21.10
2023-02-16T12:15:47.798Z,17.00
2023-02-16T12:16:47.831Z,22.10
2023-02-16T12:17:47.747Z,22.70
2023-02-16T12:18:47.720Z,19.60
2023-02-16T12:19:47.738Z,30.50
2023-02-16T12:20:47.724Z,22.80
2023-02-16T12:21:47.689Z,22.30
2023-02-16T12:22:47.660Z,20.10
2023-02-16T12:23:47.652Z,17.30
2023-02-16T12:24:47.648Z,21.90
2023-02-16T12:25:47.644Z,54.60
2023-02-16T12:26:47.588Z,48.00
2023-02-16T12:27:47.606Z,25.10
2023-02-16T12:28:47.596Z,23.10
2023-02-16T12:29:47.588Z,24.00
2023-02-16T12:30:47.606Z,19.60
2023-02-16T12:31:47.673Z,18.30
2023-02-16T12:32:47.535Z,23.40
2023-02-16T12:33:47.569Z,18.90
2023-02-16T12:34:48.765Z,29.40
2023-02-16T12:35:47.511Z,27.20
2023-02-16T12:36:47.458Z,29.70
2023-02-16T12:37:47.480Z,35.80
2023-02-16T12:38:47.477Z,30.50
2023-02-16T12:39:47.468Z,27.50